Time;durP1;ratioP1;P1;durP2;ratioP2;P2;SDS_P1;SDS_P2;PMS_P1;PMS_P2;Temp;Humidity;BMP_temperature;BMP_pressure;BME280_temperature;BME280_humidity;BME280_pressure;Samples;Min_cycle;Max_cycle;Signal;HPM_P1;HPM_P2
2023/01/30 00:00:13;;;;;;;15.03;13.43;;;;;;;2.44;50.84;98362.75;8447690;28;20565;-66
2023/01/30 00:04:18;;;;;;;15.73;13.67;;;;;;;2.43;50.68;98340.56;8447744;28;20238;-66
2023/01/30 00:08:21;;;;;;;14.27;12.77;;;;;;;2.60;50.58;98324.28;8447656;28;20234;-66
2023/01/30 00:12:24;;;;;;;17.17;14.37;;;;;;;2.79;50.20;98337.81;8447514;28;20425;-66
2023/01/30 00:16:26;;;;;;;17.00;14.03;;;;;;;2.90;50.09;98336.00;8447362;28;20381;-66
2023/01/30 00:20:31;;;;;;;16.23;13.27;;;;;;;2.93;50.12;98333.41;8447175;28;20702;-66
2023/01/30 00:24:34;;;;;;;15.40;12.70;;;;;;;2.97;50.12;98335.13;8446988;28;20249;-66
2023/01/30 00:28:37;;;;;;;18.23;13.63;;;;;;;2.73;50.41;98285.81;8446915;28;20411;-66
2023/01/30 00:32:39;;;;;;;16.10;13.17;;;;;;;3.08;50.82;98350.34;8446384;28;20238;-65
2023/01/30 00:36:44;;;;;;;15.60;13.60;;;;;;;3.10;50.87;98351.19;8446428;28;20227;-66
2023/01/30 00:40:50;;;;;;;15.60;13.17;;;;;;;3.00;51.83;98367.50;8446538;28;20235;-66
2023/01/30 00:49:14;;;;;;;15.20;13.60;;;;;;;3.08;52.24;98391.31;8446393;28;20227;-66
2023/01/30 00:53:19;;;;;;;15.60;13.63;;;;;;;2.87;52.51;98349.66;8445856;28;20235;-66
2023/01/30 00:57:21;;;;;;;17.23;13.37;;;;;;;3.16;52.49;98371.63;8446074;28;20224;-66
2023/01/30 01:01:24;;;;;;;16.30;13.53;;;;;;;3.20;52.74;98367.31;8445819;28;20239;-66
2023/01/30 01:05:28;;;;;;;17.57;14.30;;;;;;;2.88;54.31;98371.00;8445888;28;20234;-66
2023/01/30 01:09:32;;;;;;;18.53;14.57;;;;;;;2.79;55.04;98368.50;8445295;28;20550;-66
2023/01/30 01:13:35;;;;;;;16.27;13.83;;;;;;;3.12;54.13;98344.34;8445267;28;20254;-66
2023/01/30 01:17:38;;;;;;;16.73;14.37;;;;;;;2.98;54.52;98349.59;8445301;28;20228;-66
2023/01/30 01:21:41;;;;;;;16.37;14.00;;;;;;;2.87;55.13;98349.66;8445200;28;20219;-66
2023/01/30 01:25:45;;;;;;;15.83;13.47;;;;;;;2.95;54.19;98288.19;8444111;28;20219;-66
2023/01/30 01:29:48;;;;;;;17.27;13.93;;;;;;;3.32;54.21;98327.13;8444389;28;20239;-66
2023/01/30 01:33:52;;;;;;;16.63;14.10;;;;;;;2.55;53.98;98170.91;8444317;28;20257;-66
2023/01/30 01:37:55;;;;;;;16.10;13.50;;;;;;;3.40;54.14;98309.13;8443823;28;20232;-66
2023/01/30 01:41:59;;;;;;;15.33;13.07;;;;;;;3.39;54.81;98288.63;8444160;28;20231;-66
2023/01/30 01:46:07;;;;;;;16.37;13.30;;;;;;;3.62;54.13;98283.28;8444129;28;20250;-66
2023/01/30 01:50:12;;;;;;;14.20;12.70;;;;;;;3.60;54.30;98285.00;8444146;28;20227;-66
2023/01/30 01:54:18;;;;;;;13.83;12.30;;;;;;;3.65;54.99;98286.63;8443962;28;20239;-66
2023/01/30 01:58:24;;;;;;;13.50;12.10;;;;;;;3.71;54.64;98249.88;8443970;28;20235;-66
2023/01/30 02:02:27;;;;;;;14.60;12.10;;;;;;;3.75;54.63;98264.34;8443718;28;20234;-66
2023/01/30 02:06:30;;;;;;;15.63;12.67;;;;;;;3.75;54.97;98235.31;8444016;28;20579;-66
2023/01/30 02:10:40;;;;;;;15.83;12.93;;;;;;;3.70;55.47;98231.09;8443777;28;20224;-66
2023/01/30 02:14:44;;;;;;;15.47;12.23;;;;;;;3.58;55.66;98222.72;8443031;28;20223;-66
2023/01/30 02:18:47;;;;;;;17.07;13.63;;;;;;;3.52;55.25;98193.75;8443619;28;20227;-66
2023/01/30 02:23:08;;;;;;;16.13;12.80;;;;;;;3.47;56.50;98189.56;8443640;28;20243;-66
2023/01/30 02:27:19;;;;;;;13.20;11.40;;;;;;;3.61;55.61;98184.25;8443570;28;20272;-66
2023/01/30 02:31:27;;;;;;;13.90;11.50;;;;;;;3.42;55.73;98156.31;8443188;28;20227;-66
2023/01/30 02:35:39;;;;;;;13.63;11.30;;;;;;;3.78;54.88;98219.91;8443286;28;20247;-66
2023/01/30 02:39:52;;;;;;;11.97;10.50;;;;;;;3.71;55.04;98206.31;8442697;28;20227;-66
2023/01/30 02:44:01;;;;;;;12.40;10.43;;;;;;;3.92;54.72;98194.94;8443215;28;20234;-66
2023/01/30 02:48:06;;;;;;;12.57;10.33;;;;;;;3.66;55.39;98197.88;8445636;28;20224;-67
2023/01/30 02:52:11;;;;;;;12.90;10.77;;;;;;;3.78;54.95;98197.69;8449463;28;20247;-66
2023/01/30 02:56:14;;;;;;;11.90;10.13;;;;;;;3.78;54.67;98171.25;8449352;28;20231;-66
2023/01/30 03:00:20;;;;;;;11.53;10.33;;;;;;;3.82;55.27;98165.19;8449033;28;20243;-66
2023/01/30 03:04:47;;;;;;;11.73;10.03;;;;;;;4.00;54.74;98159.81;8449410;28;20242;-66
2023/01/30 03:08:58;;;;;;;12.40;10.90;;;;;;;3.89;55.05;98159.13;8448350;28;20215;-66
2023/01/30 03:13:05;;;;;;;12.53;10.47;;;;;;;3.86;55.24;98139.50;8448974;28;22428;-66
2023/01/30 03:17:09;;;;;;;12.83;10.93;;;;;;;4.05;54.65;98134.09;8448877;28;20223;-66
2023/01/30 03:21:13;;;;;;;12.20;10.63;;;;;;;4.05;55.02;98118.72;8448599;28;20228;-66
2023/01/30 03:25:20;;;;;;;12.20;10.57;;;;;;;4.08;54.99;98114.41;8448566;28;20223;-66
2023/01/30 03:29:23;;;;;;;11.87;10.67;;;;;;;4.14;54.84;98130.56;8448620;28;20227;-66
2023/01/30 03:33:26;;;;;;;11.57;10.10;;;;;;;4.23;54.95;98123.56;8448499;28;20232;-66
2023/01/30 03:37:30;;;;;;;11.87;10.60;;;;;;;4.22;54.85;98126.16;8448189;28;20228;-66
2023/01/30 03:41:33;;;;;;;12.13;10.80;;;;;;;3.99;56.19;98126.53;8447939;28;20227;-66
2023/01/30 03:45:36;;;;;;;13.90;11.37;;;;;;;4.35;54.72;98108.84;8448092;28;20224;-66
2023/01/30 03:49:39;;;;;;;12.27;10.90;;;;;;;4.00;55.76;98111.13;8448034;28;20527;-66
2023/01/30 03:53:44;;;;;;;12.07;10.77;;;;;;;4.35;54.89;98094.31;8447184;28;20413;-66
2023/01/30 03:58:01;;;;;;;12.20;10.30;;;;;;;4.08;56.47;98114.41;8448887;28;20234;-67
2023/01/30 04:02:04;;;;;;;11.43;10.10;;;;;;;4.54;54.89;98110.22;8436105;28;20228;-67
2023/01/30 04:06:07;;;;;;;12.77;10.63;;;;;;;4.47;55.31;98114.63;8447419;28;20415;-66
2023/01/30 04:10:14;;;;;;;11.27;10.07;;;;;;;3.78;55.08;98002.16;8447302;28;20234;-66
2023/01/30 04:14:16;;;;;;;11.40;9.80;;;;;;;4.39;55.79;98116.47;8446879;28;20231;-66
2023/01/30 04:18:19;;;;;;;11.60;9.80;;;;;;;4.24;55.88;98114.16;8447231;28;20541;-66
2023/01/30 04:22:22;;;;;;;11.17;9.97;;;;;;;4.11;56.28;98123.75;8446830;28;20407;-66
2023/01/30 04:26:27;;;;;;;11.07;9.33;;;;;;;4.31;55.73;98114.03;8446638;28;20223;-66
2023/01/30 04:30:30;;;;;;;10.10;9.00;;;;;;;4.17;56.23;98107.44;8446184;28;20247;-66
2023/01/30 04:34:33;;;;;;;10.67;9.20;;;;;;;4.09;56.36;98105.00;8446217;28;20468;-66
2023/01/30 04:38:36;;;;;;;10.20;9.10;;;;;;;3.78;57.18;98092.66;8446258;28;20223;-66
2023/01/30 04:42:40;;;;;;;10.70;9.03;;;;;;;4.01;56.73;98097.41;8446157;28;20231;-66
2023/01/30 04:46:43;;;;;;;11.57;10.03;;;;;;;4.13;56.25;98105.78;8445732;28;20220;-66
2023/01/30 04:50:48;;;;;;;10.40;9.37;;;;;;;4.01;56.27;98087.19;8445782;28;20224;-67
2023/01/30 04:54:51;;;;;;;10.80;9.70;;;;;;;4.19;55.71;98082.59;8445450;28;20323;-67
2023/01/30 04:58:56;;;;;;;9.07;8.17;;;;;;;4.21;55.99;98068.09;8445025;28;20231;-67
2023/01/30 05:02:59;;;;;;;10.00;9.00;;;;;;;4.28;55.72;98064.50;8445388;28;20223;-66
2023/01/30 05:07:01;;;;;;;11.00;9.00;;;;;;;3.98;56.58;98064.19;8445102;28;20273;-66
2023/01/30 05:11:05;;;;;;;10.07;8.40;;;;;;;4.20;56.44;98054.41;8444064;28;20297;-66
2023/01/30 05:15:11;;;;;;;9.93;8.60;;;;;;;4.25;56.46;98039.78;8444505;28;20239;-65
2023/01/30 05:19:13;;;;;;;10.37;8.90;;;;;;;3.96;58.25;98042.00;8444812;28;20232;-65
2023/01/30 05:23:16;;;;;;;9.07;8.10;;;;;;;4.12;58.68;98048.56;8444520;28;20250;-65
2023/01/30 05:27:19;;;;;;;10.13;8.40;;;;;;;4.14;59.00;98038.28;8445027;28;20227;-65
2023/01/30 05:31:24;;;;;;;9.23;8.23;;;;;;;3.99;59.05;98041.94;8444470;28;20234;-66
2023/01/30 05:35:27;;;;;;;8.80;7.90;;;;;;;4.04;58.61;98038.44;8444749;28;20233;-66
2023/01/30 05:39:30;;;;;;;9.53;8.07;;;;;;;4.20;58.18;98041.56;8444613;28;20224;-66
2023/01/30 05:43:34;;;;;;;9.30;8.03;;;;;;;4.07;59.22;98043.53;8443902;28;20259;-67
2023/01/30 05:47:38;;;;;;;9.03;8.13;;;;;;;3.85;59.85;98039.63;8443772;28;20227;-65
2023/01/30 05:51:41;;;;;;;8.50;7.60;;;;;;;4.11;59.44;98027.22;8443672;28;20227;-66
2023/01/30 05:55:44;;;;;;;10.10;8.73;;;;;;;4.34;59.05;98020.84;8444039;28;20503;-66
2023/01/30 05:59:47;;;;;;;10.03;8.20;;;;;;;4.24;59.08;98014.16;8443730;28;20227;-66
2023/01/30 06:03:52;;;;;;;8.33;7.43;;;;;;;4.05;59.16;98032.44;8443504;28;20232;-66
2023/01/30 06:07:55;;;;;;;8.47;7.67;;;;;;;4.34;58.16;98037.91;8443845;28;20586;-66
2023/01/30 06:11:58;;;;;;;8.00;7.20;;;;;;;4.40;57.96;98042.94;8443633;28;20247;-66
2023/01/30 06:16:01;;;;;;;8.70;7.67;;;;;;;4.33;57.45;98047.34;8443242;28;20243;-66
2023/01/30 06:20:06;;;;;;;8.33;7.33;;;;;;;4.39;57.44;98026.72;8443365;28;20451;-66
2023/01/30 06:24:09;;;;;;;8.50;7.60;;;;;;;4.46;57.33;98020.59;8447841;28;20227;-66
2023/01/30 06:28:12;;;;;;;9.20;8.20;;;;;;;2.97;57.70;97797.84;8450070;28;20419;-66
2023/01/30 06:32:15;;;;;;;9.47;8.47;;;;;;;3.83;58.28;98023.44;8449698;28;20231;-66
2023/01/30 06:36:20;;;;;;;8.70;7.80;;;;;;;4.31;57.86;98042.22;8449829;28;20232;-66
2023/01/30 06:40:22;;;;;;;8.70;7.43;;;;;;;4.33;57.41;98026.81;8449681;28;20272;-66
2023/01/30 06:44:25;;;;;;;8.37;7.47;;;;;;;4.38;57.00;98025.03;8449270;28;20404;-66
2023/01/30 06:48:28;;;;;;;9.47;8.13;;;;;;;4.47;56.57;98026.56;8445198;28;20223;-66
2023/01/30 06:52:32;;;;;;;8.87;7.97;;;;;;;4.31;57.10;98013.19;8458892;28;20417;-67
2023/01/30 06:56:35;;;;;;;9.27;8.33;;;;;;;4.11;57.58;98024.66;8449116;28;20250;-67
2023/01/30 07:00:39;;;;;;;9.70;8.47;;;;;;;4.09;57.48;98021.28;8449175;28;20234;-66
2023/01/30 07:04:42;;;;;;;10.43;8.70;;;;;;;4.31;57.32;98015.75;8448467;28;20359;-67
2023/01/30 07:08:46;;;;;;;10.73;8.83;;;;;;;4.06;57.34;98003.38;8448320;28;20227;-67
2023/01/30 07:12:49;;;;;;;9.87;8.87;;;;;;;4.05;57.91;97999.13;8448498;28;20227;-66
2023/01/30 07:16:52;;;;;;;9.33;8.33;;;;;;;3.85;58.72;97981.53;8448601;28;20234;-67
2023/01/30 07:20:54;;;;;;;8.97;8.07;;;;;;;4.07;58.00;97987.16;8448617;28;20231;-67
2023/01/30 07:24:59;;;;;;;8.57;7.47;;;;;;;3.76;59.37;97984.25;8448411;28;20235;-67
2023/01/30 07:29:02;;;;;;;9.57;7.60;;;;;;;3.72;59.06;97955.28;8448207;28;20238;-66
2023/01/30 07:33:06;;;;;;;7.23;6.53;;;;;;;3.98;58.75;97955.69;8447411;28;20326;-66
2023/01/30 07:37:09;;;;;;;7.97;7.10;;;;;;;4.14;57.98;97949.41;8447469;28;20224;-66
2023/01/30 07:41:13;;;;;;;7.70;6.90;;;;;;;3.83;58.23;97915.84;8447864;28;20219;-67
2023/01/30 07:45:15;;;;;;;7.53;6.80;;;;;;;4.27;57.53;97947.47;8447573;28;20232;-67
2023/01/30 07:49:19;;;;;;;7.20;6.50;;;;;;;4.53;57.23;97967.44;8447898;28;20371;-67
2023/01/30 07:53:22;;;;;;;7.30;6.60;;;;;;;4.08;58.62;97929.03;8448039;28;20224;-68
2023/01/30 07:57:26;;;;;;;7.00;6.30;;;;;;;4.26;57.57;97936.34;8447640;28;20238;-67
2023/01/30 08:01:29;;;;;;;7.87;6.57;;;;;;;4.15;57.76;97946.00;8447901;28;20224;-67
2023/01/30 08:05:32;;;;;;;7.10;6.40;;;;;;;4.17;58.43;97922.88;8447857;28;20228;-67
2023/01/30 08:09:34;;;;;;;6.50;5.90;;;;;;;4.13;58.28;97929.78;8447670;28;20333;-67
2023/01/30 08:13:39;;;;;;;6.93;5.97;;;;;;;4.19;58.12;97937.38;8447332;28;20535;-67
2023/01/30 08:17:41;;;;;;;6.77;6.07;;;;;;;4.41;57.62;97936.94;8447139;28;20260;-68
2023/01/30 08:21:44;;;;;;;6.80;6.03;;;;;;;4.53;57.37;97928.16;8447336;28;20235;-68
2023/01/30 08:25:47;;;;;;;7.20;6.50;;;;;;;4.14;57.94;97910.97;8447049;28;20227;-67
2023/01/30 08:29:52;;;;;;;6.93;6.23;;;;;;;4.45;57.46;97908.63;8447033;28;20230;-67
2023/01/30 08:33:54;;;;;;;7.23;6.50;;;;;;;4.19;58.72;97932.25;8446886;28;20236;-67
2023/01/30 08:37:57;;;;;;;8.03;6.03;;;;;;;4.54;58.25;97924.72;8446916;28;20231;-67
2023/01/30 08:42:00;;;;;;;7.20;6.50;;;;;;;4.55;59.03;97934.94;8446761;28;20227;-67
2023/01/30 08:46:04;;;;;;;7.47;5.77;;;;;;;5.13;70.09;97931.97;8446524;28;20575;-68
2023/01/30 08:50:08;;;;;;;6.27;5.67;;;;;;;8.17;71.42;97932.66;8446319;28;20257;-69
2023/01/30 08:54:11;;;;;;;7.07;5.73;;;;;;;8.40;57.83;97924.09;8446018;28;20421;-68
2023/01/30 08:58:14;;;;;;;6.43;5.83;;;;;;;8.13;52.89;97929.34;8445444;28;20228;-67
2023/01/30 09:02:18;;;;;;;11.40;9.53;;;;;;;6.12;56.67;97933.81;8445967;28;20227;-67
2023/01/30 09:06:21;;;;;;;8.47;6.83;;;;;;;6.37;57.03;97935.72;8445892;28;20527;-67
2023/01/30 09:10:28;;;;;;;7.33;6.63;;;;;;;5.65;58.26;97935.84;8445777;28;20268;-67
2023/01/30 09:14:31;;;;;;;6.73;5.93;;;;;;;5.13;59.36;97911.44;8445618;28;20246;-67
2023/01/30 09:18:38;;;;;;;6.97;6.27;;;;;;;5.19;59.26;97935.25;8445407;28;20286;-67
2023/01/30 09:22:41;;;;;;;7.70;6.43;;;;;;;5.28;59.19;97911.09;8445365;28;20515;-67
2023/01/30 09:26:44;;;;;;;7.87;6.10;;;;;;;4.96;59.99;97925.50;8444779;28;20223;-67
2023/01/30 09:30:46;;;;;;;8.07;6.70;;;;;;;4.82;60.33;97912.16;8444862;28;20228;-67
2023/01/30 09:34:51;;;;;;;7.00;6.30;;;;;;;4.63;60.63;97884.31;8444794;28;20546;-67
2023/01/30 09:38:54;;;;;;;7.73;6.40;;;;;;;4.48;60.32;97900.88;8445042;28;20549;-67
2023/01/30 09:43:16;;;;;;;6.30;5.40;;;;;;;4.95;59.58;97912.69;8444575;28;20252;-67
2023/01/30 09:47:24;;;;;;;7.73;6.93;;;;;;;4.89;59.69;97898.28;8444829;28;20491;-67
2023/01/30 09:51:45;;;;;;;6.60;5.53;;;;;;;4.54;60.29;97889.66;8444731;28;20245;-67
2023/01/30 09:55:49;;;;;;;6.43;5.73;;;;;;;4.75;59.74;97890.06;8443706;28;20242;-67
2023/01/30 09:59:57;;;;;;;5.63;5.03;;;;;;;4.62;59.49;97884.34;8443893;28;20534;-67
2023/01/30 10:04:09;;;;;;;6.90;5.83;;;;;;;4.87;59.33;97889.78;8444280;28;20250;-66
2023/01/30 10:08:39;;;;;;;5.43;4.93;;;;;;;4.94;58.51;97890.50;8444294;28;20291;-66
2023/01/30 10:12:50;;;;;;;5.03;4.53;;;;;;;4.83;59.08;97891.56;8443838;28;20222;-66
2023/01/30 10:17:00;;;;;;;5.50;5.00;;;;;;;4.82;59.11;97859.09;8444058;28;20227;-67
2023/01/30 10:21:11;;;;;;;5.57;5.07;;;;;;;4.81;58.69;97877.94;8444300;28;20223;-67
2023/01/30 10:25:26;;;;;;;4.97;4.40;;;;;;;4.78;58.61;97877.16;8444331;28;20542;-67
2023/01/30 10:29:32;;;;;;;4.20;3.90;;;;;;;4.95;58.56;97869.94;8443965;28;20227;-67
2023/01/30 10:33:39;;;;;;;4.10;3.70;;;;;;;4.88;59.01;97866.66;8443759;28;20228;-67
2023/01/30 10:37:46;;;;;;;4.03;3.73;;;;;;;4.80;59.13;97875.41;8443471;28;20491;-66
2023/01/30 10:41:54;;;;;;;4.10;3.70;;;;;;;4.80;59.12;97870.28;8443851;28;20224;-67
2023/01/30 10:46:13;;;;;;;5.17;4.20;;;;;;;4.99;58.73;97879.25;8443461;28;20224;-67
2023/01/30 10:50:18;;;;;;;4.37;3.97;;;;;;;4.89;58.91;97868.34;8443663;28;20239;-67
2023/01/30 10:54:27;;;;;;;4.50;3.87;;;;;;;5.07;59.13;97877.34;8443460;28;20231;-66
2023/01/30 10:58:36;;;;;;;4.53;4.13;;;;;;;4.84;59.67;97859.91;8443235;28;20223;-67
2023/01/30 11:02:45;;;;;;;4.10;3.80;;;;;;;4.62;60.98;97867.22;8443539;28;20231;-67
2023/01/30 11:06:48;;;;;;;4.30;3.90;;;;;;;4.69;60.56;97850.84;8442889;28;20228;-66
2023/01/30 11:10:52;;;;;;;4.13;3.73;;;;;;;5.03;59.94;97851.78;8446873;28;20234;-66
2023/01/30 11:15:02;;;;;;;4.57;4.17;;;;;;;5.01;59.62;97856.94;8449367;28;20235;-67
2023/01/30 11:19:06;;;;;;;5.67;4.40;;;;;;;4.97;59.93;97855.34;8449286;28;20229;-66
2023/01/30 11:23:25;;;;;;;4.53;4.13;;;;;;;5.15;60.15;97855.78;8449133;28;20283;-67
2023/01/30 11:27:29;;;;;;;4.50;4.10;;;;;;;4.62;60.85;97839.00;8448884;28;20227;-66
2023/01/30 11:31:33;;;;;;;4.70;4.30;;;;;;;4.69;60.94;97839.72;8448622;28;20301;-66
2023/01/30 11:35:52;;;;;;;4.20;3.90;;;;;;;4.91;61.08;97837.50;8448254;28;20232;-66
2023/01/30 11:39:56;;;;;;;4.40;4.00;;;;;;;5.01;61.77;97835.59;8448597;28;20232;-66
2023/01/30 11:44:01;;;;;;;4.27;3.90;;;;;;;4.82;62.39;97824.91;8448342;28;20299;-67
2023/01/30 11:48:11;;;;;;;5.17;4.67;;;;;;;4.52;63.36;97832.41;8448273;28;20234;-67
2023/01/30 11:52:36;;;;;;;4.17;3.87;;;;;;;4.74;62.85;97839.63;8448234;28;20244;-66
2023/01/30 11:56:41;;;;;;;4.73;4.33;;;;;;;4.60;62.89;97833.06;8447810;28;20242;-67
2023/01/30 12:00:48;;;;;;;4.37;3.97;;;;;;;4.78;61.56;97839.53;8447557;28;20223;-67
2023/01/30 12:04:55;;;;;;;4.80;4.30;;;;;;;4.87;61.73;97831.63;8447947;28;20538;-66
2023/01/30 12:08:58;;;;;;;4.50;4.10;;;;;;;4.69;62.02;97819.22;8447547;28;20239;-67
2023/01/30 12:13:04;;;;;;;4.27;3.87;;;;;;;5.01;61.77;97822.75;8447510;28;20415;-67
2023/01/30 12:17:17;;;;;;;4.07;3.77;;;;;;;4.97;64.70;97810.84;8447243;28;20227;-67
2023/01/30 12:21:38;;;;;;;5.37;4.87;;;;;;;4.89;63.00;97809.34;8446735;28;20224;-66
2023/01/30 12:25:45;;;;;;;4.70;4.30;;;;;;;4.77;64.55;97829.28;8446368;28;20228;-67
2023/01/30 12:29:55;;;;;;;5.30;4.80;;;;;;;4.85;63.93;97830.78;8446808;28;20230;-67
2023/01/30 12:33:58;;;;;;;4.70;4.30;;;;;;;5.01;64.14;97830.44;8446945;28;20246;-67
2023/01/30 12:38:07;;;;;;;5.13;4.67;;;;;;;4.76;64.17;97831.03;8446532;28;20242;-67
2023/01/30 12:42:29;;;;;;;4.40;4.00;;;;;;;5.18;63.46;97820.59;8446562;28;20223;-65
2023/01/30 12:46:48;;;;;;;5.03;4.53;;;;;;;5.37;63.43;97823.56;8446507;28;20227;-67
2023/01/30 12:51:02;;;;;;;4.70;4.30;;;;;;;5.32;63.53;97825.38;8446108;28;20212;-66
2023/01/30 12:55:18;;;;;;;4.80;4.30;;;;;;;5.16;62.60;97806.97;8446056;28;20228;-67
2023/01/30 12:59:26;;;;;;;4.40;4.00;;;;;;;5.26;63.35;97828.94;8445874;28;20223;-67
2023/01/30 13:03:35;;;;;;;4.87;4.27;;;;;;;5.48;61.84;97844.66;8445905;28;20231;-66
2023/01/30 13:07:43;;;;;;;5.13;4.70;;;;;;;5.39;61.96;97815.81;8445718;28;20232;-66
2023/01/30 13:11:55;;;;;;;4.87;4.33;;;;;;;5.43;62.34;97832.81;8444796;28;20488;-66
2023/01/30 13:16:04;;;;;;;4.60;4.20;;;;;;;5.26;62.56;97830.69;8444996;28;20235;-66
2023/01/30 13:20:19;;;;;;;10.43;8.23;;;;;;;5.13;63.20;97826.72;8445613;28;20519;-65
2023/01/30 13:24:27;;;;;;;5.67;5.17;;;;;;;5.14;62.89;97825.84;8445531;28;20429;-66
2023/01/30 13:28:35;;;;;;;6.67;5.90;;;;;;;5.36;62.00;97846.69;8445060;28;20231;-67
2023/01/30 13:32:40;;;;;;;5.93;5.37;;;;;;;5.02;62.60;97826.97;8444197;28;20235;-66
2023/01/30 13:36:47;;;;;;;6.07;5.50;;;;;;;5.36;62.45;97856.97;8444516;28;20225;-67
2023/01/30 13:40:52;;;;;;;7.00;4.43;;;;;;;5.34;62.18;97866.44;8444734;28;20228;-67
2023/01/30 13:44:57;;;;;;;6.67;5.77;;;;;;;5.26;62.31;97862.31;8445022;28;20227;-67
2023/01/30 13:49:07;;;;;;;4.80;4.40;;;;;;;5.21;61.94;97856.44;8444595;28;20231;-66
2023/01/30 13:53:15;;;;;;;5.10;4.60;;;;;;;5.32;62.01;97838.22;8444505;28;20403;-66
2023/01/30 13:57:26;;;;;;;5.47;4.97;;;;;;;5.21;62.34;97855.63;8444071;28;20227;-66
2023/01/30 14:02:02;;;;;;;5.10;4.70;;;;;;;5.48;61.76;97831.81;8444621;28;20228;-66
2023/01/30 14:06:14;;;;;;;5.37;4.87;;;;;;;5.29;62.04;97834.03;8444012;28;20234;-66
2023/01/30 14:10:19;;;;;;;4.80;4.40;;;;;;;5.87;60.44;97833.34;8444136;28;20235;-65
2023/01/30 14:14:31;;;;;;;5.47;4.97;;;;;;;5.57;61.03;97835.03;8443934;28;20276;-65
2023/01/30 14:18:37;;;;;;;6.03;4.90;;;;;;;5.63;61.61;97840.81;8443877;28;20231;-67
2023/01/30 14:22:51;;;;;;;5.83;5.27;;;;;;;5.50;61.87;97847.16;8443952;28;20447;-67
2023/01/30 14:27:01;;;;;;;7.37;6.10;;;;;;;5.70;60.80;97862.09;8443692;28;20224;-67
2023/01/30 14:31:04;;;;;;;6.63;5.53;;;;;;;5.59;61.31;97858.94;8444228;28;20225;-67
2023/01/30 14:35:25;;;;;;;5.53;5.03;;;;;;;5.56;61.08;97854.75;8443743;28;20518;-67
2023/01/30 14:39:49;;;;;;;5.77;5.00;;;;;;;5.74;60.67;97873.13;8443770;28;20228;-67
2023/01/30 14:43:52;;;;;;;6.00;5.23;;;;;;;5.65;61.23;97889.59;8445608;28;20419;-67
2023/01/30 14:48:26;;;;;;;5.50;5.00;;;;;;;5.70;61.01;97892.09;8450240;28;20637;-67
2023/01/30 14:52:34;;;;;;;5.50;5.00;;;;;;;5.85;60.53;97887.38;8450331;28;20223;-67
2023/01/30 14:56:42;;;;;;;5.17;4.77;;;;;;;5.82;60.83;97879.72;8449782;28;20232;-67
2023/01/30 15:00:45;;;;;;;4.50;4.10;;;;;;;5.76;60.74;97890.19;8449468;28;20220;-67
2023/01/30 15:04:51;;;;;;;4.90;4.20;;;;;;;5.51;61.21;97878.84;8449741;28;20265;-67
2023/01/30 15:08:54;;;;;;;5.00;4.43;;;;;;;5.73;60.35;97907.41;8449287;28;20239;-67
2023/01/30 15:13:23;;;;;;;4.40;4.00;;;;;;;5.53;60.39;97916.47;8449413;28;20553;-67
2023/01/30 15:17:30;;;;;;;4.13;3.70;;;;;;;5.66;60.26;97910.13;8449135;28;20228;-67
2023/01/30 15:21:41;;;;;;;4.83;3.63;;;;;;;4.87;60.81;97823.94;8449391;28;20526;-67
2023/01/30 15:25:57;;;;;;;3.97;3.50;;;;;;;5.55;60.57;97939.53;8448567;28;20329;-67
2023/01/30 15:30:15;;;;;;;4.20;3.90;;;;;;;5.47;60.90;97942.31;8449095;28;20234;-68
2023/01/30 15:34:19;;;;;;;4.70;4.30;;;;;;;5.60;60.99;97953.13;8448803;28;20319;-67
2023/01/30 15:38:25;;;;;;;4.40;4.00;;;;;;;5.46;61.78;97948.31;8448615;28;20376;-67
2023/01/30 15:42:28;;;;;;;4.93;4.53;;;;;;;5.38;61.58;97945.91;8448585;28;20309;-66
2023/01/30 15:46:41;;;;;;;5.37;4.50;;;;;;;4.62;62.39;97845.88;8448708;28;20227;-66
2023/01/30 15:50:48;;;;;;;5.37;4.63;;;;;;;5.35;62.20;97960.56;8447545;28;20225;-65
2023/01/30 15:54:53;;;;;;;7.63;6.33;;;;;;;5.43;61.76;97963.81;8447225;28;20227;-65
2023/01/30 15:58:56;;;;;;;5.63;5.13;;;;;;;5.64;61.58;97960.72;8447608;28;20542;-65
2023/01/30 16:03:02;;;;;;;6.93;5.20;;;;;;;5.30;62.45;97981.22;8447692;28;20530;-65
2023/01/30 16:07:15;;;;;;;6.67;5.23;;;;;;;5.41;61.88;97986.13;8447829;28;20251;-65
2023/01/30 16:11:33;;;;;;;6.30;5.70;;;;;;;5.49;61.90;98003.03;8447539;28;20401;-65
2023/01/30 16:15:40;;;;;;;6.53;5.77;;;;;;;5.37;62.53;97998.19;8447808;28;20229;-66
2023/01/30 16:19:44;;;;;;;6.27;5.63;;;;;;;5.36;62.61;98004.19;8446572;28;20224;-65
2023/01/30 16:23:53;;;;;;;8.83;6.33;;;;;;;5.58;61.67;98019.09;8447100;28;20420;-66
2023/01/30 16:27:57;;;;;;;7.73;5.80;;;;;;;5.66;61.63;98036.03;8447079;28;20227;-66
2023/01/30 16:32:00;;;;;;;5.60;5.10;;;;;;;5.35;62.47;98033.34;8446948;28;20260;-66
2023/01/30 16:36:06;;;;;;;6.13;5.47;;;;;;;5.43;61.88;98008.31;8446865;28;20415;-67
2023/01/30 16:40:14;;;;;;;6.40;5.30;;;;;;;5.64;61.62;98037.78;8446833;28;20224;-66
2023/01/30 16:44:18;;;;;;;5.90;5.30;;;;;;;5.49;61.57;98048.44;8446564;28;20228;-66
2023/01/30 16:48:30;;;;;;;6.93;5.57;;;;;;;5.53;61.63;98054.34;8446242;28;20539;-66
2023/01/30 16:52:37;;;;;;;7.23;5.53;;;;;;;5.45;61.83;98062.22;8446450;28;20225;-67
2023/01/30 16:56:47;;;;;;;6.93;5.50;;;;;;;5.50;62.03;98060.38;8445833;28;20235;-67
2023/01/30 17:00:50;;;;;;;7.23;6.47;;;;;;;5.35;62.12;98041.03;8445147;28;20219;-67
2023/01/30 17:04:53;;;;;;;7.27;5.87;;;;;;;5.57;62.06;98069.63;8446082;28;20227;-66
2023/01/30 17:08:58;;;;;;;9.77;6.20;;;;;;;5.23;63.00;98061.81;8445658;28;20239;-66
2023/01/30 17:13:01;;;;;;;6.47;5.77;;;;;;;5.37;62.60;98061.53;8446014;28;20299;-66
2023/01/30 17:17:06;;;;;;;6.77;5.70;;;;;;;5.24;63.14;98076.38;8445714;28;20566;-67
2023/01/30 17:21:09;;;;;;;7.13;5.77;;;;;;;5.23;63.48;98078.06;8445374;28;20277;-65
2023/01/30 17:25:18;;;;;;;5.80;5.10;;;;;;;5.54;62.20;98074.88;8445284;28;20237;-65
2023/01/30 17:29:23;;;;;;;5.73;4.97;;;;;;;5.41;62.71;98070.88;8445320;28;20285;-65
2023/01/30 17:33:44;;;;;;;6.33;5.50;;;;;;;5.37;62.55;98085.50;8444689;28;20219;-67
2023/01/30 17:37:50;;;;;;;5.43;4.83;;;;;;;5.14;63.66;98087.69;8444965;28;20228;-67
2023/01/30 17:42:09;;;;;;;6.07;5.37;;;;;;;5.22;63.33;98096.09;8445015;28;20286;-66
2023/01/30 17:46:12;;;;;;;5.30;4.80;;;;;;;5.33;62.64;98094.16;8444790;28;20238;-67
2023/01/30 17:50:15;;;;;;;6.00;5.00;;;;;;;5.24;63.45;98102.88;8444723;28;20231;-67
2023/01/30 17:54:19;;;;;;;7.13;4.70;;;;;;;5.41;62.40;98109.41;8444906;28;20290;-67
2023/01/30 17:58:23;;;;;;;7.50;5.17;;;;;;;5.44;62.75;98122.16;8444695;28;20291;-66
2023/01/30 18:02:27;;;;;;;5.63;4.60;;;;;;;5.59;62.08;98124.41;8445004;28;20229;-66
2023/01/30 18:06:31;;;;;;;5.97;4.30;;;;;;;5.73;61.46;98136.09;8444551;28;20314;-66
2023/01/30 18:10:34;;;;;;;7.13;4.23;;;;;;;5.55;61.70;98140.75;8444539;28;20247;-66
2023/01/30 18:14:39;;;;;;;4.20;3.80;;;;;;;5.39;61.62;98147.13;8444169;28;20243;-66
2023/01/30 18:18:42;;;;;;;5.03;3.80;;;;;;;5.56;61.28;98165.59;8446147;28;20223;-66
2023/01/30 18:22:44;;;;;;;5.40;3.90;;;;;;;5.50;62.05;98168.25;8450932;28;20530;-66
2023/01/30 18:26:47;;;;;;;5.60;3.87;;;;;;;5.23;61.59;98142.25;8450817;28;20235;-66
2023/01/30 18:30:52;;;;;;;5.10;4.60;;;;;;;5.62;60.75;98177.47;8450803;28;20670;-66
2023/01/30 18:34:55;;;;;;;4.50;4.10;;;;;;;5.76;60.50;98192.59;8450148;28;20487;-66
2023/01/30 18:38:58;;;;;;;5.27;3.47;;;;;;;5.56;60.87;98204.13;8450120;28;20396;-66
2023/01/30 18:43:01;;;;;;;4.83;3.40;;;;;;;5.33;62.30;98211.41;8450036;28;20550;-66
2023/01/30 18:47:05;;;;;;;5.03;3.70;;;;;;;5.42;61.87;98201.81;8449844;28;20417;-67
2023/01/30 18:51:10;;;;;;;4.20;3.50;;;;;;;5.57;60.88;98216.06;8449670;28;20327;-66
2023/01/30 18:55:13;;;;;;;5.70;3.67;;;;;;;5.72;60.91;98224.38;8449371;28;20228;-67
2023/01/30 18:59:16;;;;;;;5.57;3.63;;;;;;;5.57;61.45;98228.91;8449640;28;20232;-66
2023/01/30 19:03:21;;;;;;;6.47;4.20;;;;;;;5.39;62.16;98253.25;8449206;28;20512;-66
2023/01/30 19:07:23;;;;;;;5.10;3.30;;;;;;;5.55;61.38;98251.22;8448840;28;20231;-66
2023/01/30 19:15:47;;;;;;;5.40;3.37;;;;;;;5.52;61.98;98271.88;8448741;28;20221;-66
2023/01/30 19:19:51;;;;;;;11.53;3.57;;;;;;;7.51;82.61;98283.63;8448788;28;20228;-67
2023/01/30 19:23:55;;;;;;;7.80;3.70;;;;;;;9.08;69.11;98288.44;8448832;28;20224;-68
2023/01/30 19:27:57;;;;;;;6.20;3.37;;;;;;;7.34;58.25;98272.91;8448809;28;20250;-67
2023/01/30 19:32:00;;;;;;;5.40;3.40;;;;;;;6.62;59.87;98281.53;8447366;28;20239;-66